Millville, Minnesota
Current Conditions -  °F | °C
As of 1:53 PM on Saturday 25 Oct 2014 (Local Time) from K9MN Reporting Station
Clear Clear  
Wind Chill: 16°   Ceiling: Unl
Heat Index: 16°   Visibility: 10mi
Dew Point: -5°   Wind: 20mph
Humidity: 24%   Direction: 300°WNW
Pressure: 30.04"   Gusts: 31mph
Location:  44.24°N, 92.3°W
Report Text: K9MN 251853Z AUTO 30017G27KT 10SM CLR 16/M05 A3004 RMK AO1 T01611047
Loading
Personal Weather Stations






























Interactive Weather Map
Tropical Storm Tracking
New forecast layout! Learn more

10-Day Weather Forecast

Advertisements
Track Severe Weather on mobile